Assiniboia, Canada
Current Conditions -  °F | °C
As of 4:00 AM on Friday 31 Oct 2014 (Local Time) from CYQR Reporting Station
Scattered Clouds Scattered Clouds  
Wind Chill:   Ceiling: Unl
Heat Index: 23°   Visibility: 15mi
Dew Point: 21°   Wind: 23mph
Humidity: 93%   Direction: 140°SE
Pressure: 30.31"   Gusts: 33mph
Location:  49.63°N, 105.99°W
Report Text: CYQR 311000Z 14020G29KT 15SM SCT015 M05/M06 A3031 RMK SC4 SLP297
Loading
Personal Weather Stations






























Interactive Weather Map
Tropical Storm Tracking
New forecast layout! Learn more

10-Day Weather Forecast

Advertisements
Track Severe Weather on mobile